Flight Track Log - Related Links

Times and Time Zones

All times are in EDT time to prevent confusion due to time zone crossing. See the XOJ578 flight status page for this flight to view local times or setup timezone preferences in your user account.

Time Position Orientation Groundspeed Altitude Reporting Facility
EDT Latitude Longitude Course Direction KTS MPH feet Rate Location/Type
Sun 10:48:18 AM 40.7000 -73.4167 217° Southwest 180 207 1,500  Level New York TRACON
Sun 10:49:18 AM 40.6667 -73.4500 217° Southwest 195 224 2,000 250 Climbing New York TRACON
Sun 10:50:18 AM 40.6167 -73.4833 207° Southwest 192 221 2,000 450 Level New York TRACON
Sun 10:51:18 AM 40.5667 -73.5167 207° Southwest 212 244 2,900 500 Climbing New York TRACON
Sun 10:52:18 AM 40.5000 -73.5500 201° Southwest 247 284 3,000 50 Climbing New York TRACON
Sun 10:53:18 AM 40.4333 -73.6000 210° Southwest 246 283 3,000  Level New York TRACON
Sun 10:54:18 AM 40.4000 -73.6667 237° Southwest 248 285 3,000  Level New York TRACON
Sun 10:55:24 AM 40.4000 -73.7667 270° West 248 285 3,000 122 Level New York TRACON
Sun 10:57:00 AM 40.3290 -73.8767 230° Southwest  Level FlightAware Approximate
Sun 11:02:30 AM 40.1500 -74.2333 323° Northwest 258 297 4,000  Level New York TRACON
Sun 11:03:30 AM 40.1667 -74.3167 285° West 246 283 4,000  Level New York TRACON
Sun 11:04:00 AM 40.1558 -74.3502 294° West  Level FlightAware Approximate
Sun 11:04:30 AM 40.1833 -74.4000 285° West 250 288 4,000  Level New York TRACON
Sun 11:05:00 AM 40.1832 -74.4326 294° West  Level FlightAware Approximate
Sun 11:05:30 AM 40.2000 -74.5000 282° West 253 291 4,000  Level New York TRACON
Sun 11:06:00 AM 40.2185 -74.5080 315° West  Level FlightAware Approximate
Sun 11:06:30 AM 40.2667 -74.5333 339° North 278 320 4,000  Level New York TRACON
Sun 11:07:00 AM 40.2689 -74.5689 323° Northwest  Level FlightAware Approximate
Sun 11:07:24 AM 40.3333 -74.5500 349° North 279 321 4,000  Level New York TRACON
Sun 11:08:24 AM 40.4000 -74.5500 360° North 279 321 4,000  Level New York TRACON
Sun 11:09:24 AM 40.4833 -74.5667 351° North 278 320 4,000  Level New York TRACON
Sun 11:10:30 AM 40.5667 -74.5667 360° North 279 321 4,000  Level New York TRACON
Sun 11:11:30 AM 40.6500 -74.5667 360° North 285 328 4,000  Level New York TRACON
Sun 11:12:30 AM 40.7333 -74.5667 360° North 283 326 4,000  Level New York TRACON
Sun 11:13:30 AM 40.8000 -74.5500 11° North 282 325 4,000  Level New York TRACON
Sun 11:14:30 AM 40.8833 -74.5500 360° North 282 325 4,000  Level New York TRACON
Sun 11:15:30 AM 40.9500 -74.5167 21° North 290 334 4,000  Level New York TRACON
Sun 11:16:30 AM 41.0167 -74.4500 37° Northeast 291 335 4,000 -450 Level New York TRACON
Sun 11:17:30 AM 41.0500 -74.3500 66° East 281 323 3,100 -500 Descending New York TRACON
Sun 11:18:30 AM 41.0667 -74.2500 78° East 288 331 3,000 -50 Descending New York TRACON
Sun 11:19:30 AM 41.0500 -74.1500 102° East 270 311 3,000 -500 Level New York TRACON
Sun 11:20:30 AM 41.0333 -74.0667 105° East 238 274 2,000 -750 Descending New York TRACON
Sun 11:21:30 AM 40.9833 -74.0500 166° South 186 214 1,500 -250 Descending New York TRACON
Sun 11:22:30 AM 40.9333 -74.0500 180° South 169 194 1,500 -350 Level New York TRACON
Sun 11:23:30 AM 40.9000 -74.0500 180° South 137 158 800 -650 Descending New York TRACON
Sun 11:24:30 AM 40.8667 -74.0667 201° Southwest 115 132 200 -600 Descending New York TRACON

Login

Don't have an account? Register now (free) for customized features, flight alerts, and more!